Killarney, FL (34740)

1:36 AM EST on February 14, 2016 (GMT -0500)
Oakland Pointe | | Change Station
CLOSE
Current Station
Personal Weather Station
Location: Oakland, FL
Elevation: 92 ft
Nearby Weather Stations

Elev 92 ft 28.56 °N, 81.63 °W | Updated 11 seconds ago

Clear
Clear
49.6 °F
Feels Like 50 °F
N
2.0
Wind Variable Wind from West
Gusts 7.0 mph

Today
High -- | Low -- °F
--% Chance of Precip.
Yesterday
High -- | Low -- °F
Precip. -- in
Pressure 30.30 in
Visibility 10.0 miles
Clouds Clear
Windchill 50 °F
Dew Point 42 °F
Humidity 76%
Rainfall 0.00 in
Snow Depth Not available.
7:05 AM 6:15 PM
Waxing Crescent, 38% visible
METAR KORL 140553Z AUTO 01008KT 10SM CLR 11/04 A3029 RMK AO2 SLP260 T01060039 10161 20106 58002
Pressure 30.30 in
Visibility 10.0 miles
Clouds Clear
Windchill 50 °F
Dew Point 42 °F
Humidity 76%
Rainfall 0.00 in
Snow Depth Not available.
7:05 AM 6:15 PM
Waxing Crescent, 38% visible
METAR KORL 140553Z AUTO 01008KT 10SM CLR 11/04 A3029 RMK AO2 SLP260 T01060039 10161 20106 58002

10-Day Weather Forecast

Almanac

Astronomy

Feb. 14, 2016 Rise Set
Actual Time
Civil Twilight
Nautical Twilight
Astronomical Twilight
Moon
Length of Visible Light
Length of Day
Tomorrow will be .
, % of the Moon is Illuminated

Today's Extremes

State Highs State Lows

Community

WunderPhotos

Upload Photos

1,892,757 photos uploaded!

WunderBlog® & News

Nearby

Air Quality

  Air Quality AQ Index Pollutant
Not available.

Snow Depth

Station Depth Elevation

Earthquake Activity

City Distance Mag. Time & Date
Minimum magnitude displayed is 2.5.

Coastal Water Temperatures

Place Temperature

Stations

Nearby Weather Stations

Station Location Temp. Windchill Dew Point Humidity Wind Precip. Elev Updated Type
                   

Watches & Warnings

There are currently no watches in effect.